createdAt,value
2019-02-26T00:00:56.486Z,99.90
2019-02-26T00:03:28.530Z,99.90
2019-02-26T00:05:59.516Z,99.90
2019-02-26T00:08:31.727Z,99.90
2019-02-26T00:11:03.507Z,99.90
2019-02-26T00:13:34.611Z,99.90
2019-02-26T00:16:07.687Z,99.90
2019-02-26T00:18:36.528Z,99.90
2019-02-26T00:21:06.422Z,99.90
2019-02-26T00:23:36.257Z,99.90
2019-02-26T00:26:06.234Z,99.90
2019-02-26T00:28:36.450Z,99.90
2019-02-26T00:31:07.769Z,99.90
2019-02-26T00:33:37.950Z,99.90
2019-02-26T00:36:09.001Z,99.90
2019-02-26T00:38:40.014Z,99.90
2019-02-26T00:41:11.081Z,99.90
2019-02-26T00:43:40.969Z,99.90
2019-02-26T00:46:10.900Z,99.90
2019-02-26T00:48:43.046Z,99.90
2019-02-26T00:51:12.361Z,99.90
2019-02-26T00:53:42.235Z,99.90
2019-02-26T00:56:12.110Z,99.90
2019-02-26T00:58:43.990Z,99.90
2019-02-26T01:01:15.281Z,99.90
2019-02-26T01:03:46.981Z,99.90
2019-02-26T01:06:16.619Z,99.90
2019-02-26T01:08:47.079Z,99.90
2019-02-26T01:11:19.326Z,99.90
2019-02-26T01:13:50.376Z,99.90
2019-02-26T01:16:20.329Z,99.90
2019-02-26T01:18:51.044Z,99.90
2019-02-26T01:21:24.384Z,99.90
2019-02-26T01:23:53.213Z,99.90
2019-02-26T01:26:23.042Z,99.90
2019-02-26T01:28:56.124Z,99.90
2019-02-26T01:31:27.382Z,99.90
2019-02-26T01:33:58.210Z,99.90
2019-02-26T01:36:28.067Z,99.90
2019-02-26T01:38:57.904Z,99.90
2019-02-26T01:41:27.804Z,99.90
2019-02-26T01:43:57.713Z,99.90
2019-02-26T01:46:27.546Z,99.90
2019-02-26T01:48:58.017Z,99.90
2019-02-26T01:51:28.919Z,99.90
2019-02-26T01:53:58.767Z,99.90
2019-02-26T01:56:28.637Z,99.90
2019-02-26T01:59:02.164Z,99.90
2019-02-26T02:01:29.976Z,99.90
2019-02-26T02:03:59.896Z,99.90
2019-02-26T02:06:30.371Z,99.90
2019-02-26T02:09:01.255Z,99.90
2019-02-26T02:11:33.315Z,99.90
2019-02-26T02:14:04.218Z,99.90
2019-02-26T02:16:34.385Z,99.90
2019-02-26T02:19:04.431Z,99.90
2019-02-26T02:21:35.668Z,99.90
2019-02-26T02:24:08.248Z,99.90
2019-02-26T02:26:37.269Z,99.90
2019-02-26T02:29:07.121Z,99.90
2019-02-26T02:31:37.816Z,99.90
2019-02-26T02:34:08.494Z,99.90
2019-02-26T02:36:38.330Z,99.90
2019-02-26T02:39:12.969Z,99.90
2019-02-26T02:41:42.099Z,99.90
2019-02-26T02:44:14.495Z,99.90
2019-02-26T02:46:44.565Z,99.90
2019-02-26T02:49:17.872Z,99.90
2019-02-26T02:51:47.287Z,99.90
2019-02-26T02:54:18.564Z,99.90
2019-02-26T02:56:48.680Z,99.90
2019-02-26T02:59:18.573Z,99.90
2019-02-26T03:01:51.339Z,99.90
2019-02-26T03:04:22.088Z,99.90
2019-02-26T03:06:52.928Z,99.90
2019-02-26T03:09:22.921Z,99.90
2019-02-26T03:11:54.939Z,99.90
2019-02-26T03:14:24.293Z,99.90
2019-02-26T03:16:54.191Z,99.90
2019-02-26T03:19:24.051Z,99.90
2019-02-26T03:21:55.046Z,99.90
2019-02-26T03:24:26.262Z,99.90
2019-02-26T03:26:56.579Z,99.90
2019-02-26T03:29:28.466Z,99.90
2019-02-26T03:31:57.984Z,99.90
2019-02-26T03:34:27.824Z,99.90
2019-02-26T03:36:59.943Z,99.90
2019-02-26T03:39:29.187Z,99.90
2019-02-26T03:41:59.057Z,99.90
2019-02-26T03:44:30.311Z,99.90
2019-02-26T03:47:00.393Z,99.90
2019-02-26T03:49:30.266Z,99.90
2019-02-26T03:52:00.287Z,99.90
2019-02-26T03:54:30.557Z,99.90
2019-02-26T03:57:00.427Z,99.90
2019-02-26T03:59:30.383Z,99.90
2019-02-26T04:02:00.331Z,99.90
2019-02-26T04:04:30.958Z,99.90
2019-02-26T04:07:04.291Z,99.90
2019-02-26T04:09:33.393Z,99.90
2019-02-26T04:12:03.245Z,99.90
2019-02-26T04:14:33.134Z,99.90
2019-02-26T04:17:04.126Z,99.90
2019-02-26T04:19:34.708Z,99.90
2019-02-26T04:22:26.616Z,99.90
2019-02-26T04:25:01.443Z,99.90
2019-02-26T04:27:59.788Z,99.90
2019-02-26T04:31:02.765Z,99.90
2019-02-26T04:34:08.442Z,99.90
2019-02-26T04:37:18.053Z,99.90
2019-02-26T04:40:18.215Z,99.90
2019-02-26T04:43:34.118Z,99.90
2019-02-26T04:46:19.709Z,99.90
2019-02-26T04:48:49.655Z,99.90
2019-02-26T04:51:19.512Z,99.90
2019-02-26T04:53:51.785Z,99.90
2019-02-26T04:56:20.897Z,99.90
2019-02-26T04:58:50.781Z,99.90
2019-02-26T05:01:20.641Z,99.90
2019-02-26T05:03:50.487Z,99.90
2019-02-26T05:06:20.370Z,99.90
2019-02-26T05:08:50.232Z,99.90
2019-02-26T05:11:31.388Z,99.90
2019-02-26T05:13:51.591Z,99.90
2019-02-26T05:16:21.461Z,99.90
2019-02-26T05:18:52.230Z,99.90
2019-02-26T05:21:24.483Z,99.90
2019-02-26T05:23:55.187Z,99.90
2019-02-26T05:26:25.854Z,99.90
2019-02-26T05:28:55.749Z,99.90
2019-02-26T05:31:25.633Z,99.90
2019-02-26T05:33:57.731Z,99.90
2019-02-26T05:36:28.321Z,99.90
2019-02-26T05:39:00.317Z,99.90
2019-02-26T05:41:29.951Z,99.90
2019-02-26T05:44:03.519Z,99.90
2019-02-26T05:46:31.322Z,99.90
2019-02-26T05:49:03.028Z,99.90
2019-02-26T05:51:35.138Z,99.90
2019-02-26T05:54:07.805Z,99.90
2019-02-26T05:56:37.216Z,99.90
2019-02-26T05:59:09.632Z,99.90
2019-02-26T06:01:39.554Z,99.90
2019-02-26T06:04:12.346Z,99.90
2019-02-26T06:06:41.963Z,99.90
2019-02-26T06:09:11.818Z,99.90
2019-02-26T06:11:46.418Z,99.90
2019-02-26T06:14:14.065Z,99.90
2019-02-26T06:16:46.207Z,99.90
2019-02-26T06:19:18.169Z,99.90
2019-02-26T06:21:49.748Z,99.90
2019-02-26T06:24:22.417Z,99.90
2019-02-26T06:26:50.912Z,99.90
2019-02-26T06:29:24.435Z,99.90
2019-02-26T06:31:52.459Z,99.90
2019-02-26T06:34:22.476Z,99.90
2019-02-26T06:36:54.942Z,99.90
2019-02-26T06:39:26.739Z,99.90
2019-02-26T06:41:56.314Z,99.90
2019-02-26T06:44:26.332Z,99.90
2019-02-26T06:47:02.624Z,99.90
2019-02-26T06:49:36.009Z,99.90
2019-02-26T06:52:07.887Z,99.90
2019-02-26T06:54:37.479Z,99.90
2019-02-26T06:57:07.375Z,99.90
2019-02-26T06:59:37.287Z,99.90
2019-02-26T07:02:08.778Z,99.90
2019-02-26T07:04:38.910Z,99.90
2019-02-26T07:07:12.237Z,99.90
2019-02-26T07:09:41.938Z,99.90
2019-02-26T07:12:11.902Z,99.90
2019-02-26T07:14:41.773Z,99.90
2019-02-26T07:17:11.631Z,99.90
2019-02-26T07:19:41.510Z,99.90
2019-02-26T07:22:13.395Z,99.90
2019-02-26T07:24:44.558Z,99.90
2019-02-26T07:27:14.387Z,99.90
2019-02-26T07:29:45.547Z,99.90
2019-02-26T07:32:17.910Z,99.90
2019-02-26T07:34:49.655Z,99.90
2019-02-26T07:37:18.820Z,99.90
2019-02-26T07:39:49.712Z,99.90
2019-02-26T07:42:20.311Z,99.90
2019-02-26T07:44:50.215Z,99.90
2019-02-26T07:47:22.013Z,99.90
2019-02-26T07:49:51.595Z,99.90
2019-02-26T07:52:21.960Z,99.90
2019-02-26T07:54:53.019Z,99.90
2019-02-26T07:57:24.777Z,99.90
2019-02-26T07:59:54.444Z,99.90
2019-02-26T08:02:26.064Z,99.90
2019-02-26T08:04:55.805Z,99.90
2019-02-26T08:07:26.737Z,99.90
2019-02-26T08:09:57.171Z,99.90
2019-02-26T08:12:27.054Z,99.90
2019-02-26T08:14:56.951Z,99.90
2019-02-26T08:17:26.789Z,99.90
2019-02-26T08:19:56.647Z,99.90
2019-02-26T08:22:27.520Z,99.90
2019-02-26T08:24:58.189Z,99.90
2019-02-26T08:27:28.561Z,99.90
2019-02-26T08:30:00.939Z,99.90
2019-02-26T08:32:31.114Z,99.90
2019-02-26T08:35:00.962Z,99.90
2019-02-26T08:37:30.953Z,99.90
2019-02-26T08:40:00.843Z,99.90
2019-02-26T08:42:30.683Z,99.90
2019-02-26T08:45:00.556Z,99.90
2019-02-26T08:47:30.715Z,99.90
2019-02-26T08:50:01.752Z,99.90
2019-02-26T08:52:32.135Z,99.90
2019-02-26T08:55:02.027Z,99.90
2019-02-26T08:57:31.912Z,99.90
2019-02-26T09:00:01.793Z,99.90
2019-02-26T09:02:31.622Z,99.90
2019-02-26T09:05:02.671Z,99.90
2019-02-26T09:07:33.449Z,99.90
2019-02-26T09:10:03.315Z,99.90
2019-02-26T09:12:33.197Z,99.90
2019-02-26T09:15:03.087Z,99.90
2019-02-26T09:17:34.692Z,99.90
2019-02-26T09:20:09.424Z,99.90
2019-02-26T09:22:37.009Z,99.90
2019-02-26T09:25:07.281Z,99.90
2019-02-26T09:27:42.746Z,99.90
2019-02-26T09:30:16.162Z,99.90
2019-02-26T09:32:46.238Z,99.90
2019-02-26T09:35:18.887Z,99.90
2019-02-26T09:37:50.180Z,99.90
2019-02-26T09:40:20.209Z,99.90
2019-02-26T09:42:54.249Z,99.90
2019-02-26T09:45:25.390Z,99.90
2019-02-26T09:47:55.604Z,99.90
2019-02-26T09:50:25.577Z,99.90
2019-02-26T09:52:58.621Z,99.90
2019-02-26T09:55:26.940Z,99.90
2019-02-26T09:57:56.817Z,99.90
2019-02-26T10:00:29.314Z,99.90
2019-02-26T10:02:58.154Z,99.90
2019-02-26T10:05:28.013Z,99.90
2019-02-26T10:07:59.994Z,99.90
2019-02-26T10:10:31.204Z,99.00
2019-02-26T10:13:02.881Z,98.60
2019-02-26T10:15:34.649Z,98.00
2019-02-26T10:18:06.572Z,98.70
2019-02-26T10:20:35.476Z,98.20
2019-02-26T10:23:06.271Z,97.70
2019-02-26T10:25:38.594Z,97.20
2019-02-26T10:28:09.654Z,97.80
2019-02-26T10:30:41.601Z,96.80
2019-02-26T10:33:10.928Z,96.90
2019-02-26T10:35:42.803Z,96.80
2019-02-26T10:38:12.278Z,96.00
2019-02-26T10:40:53.497Z,95.50
2019-02-26T10:43:13.653Z,94.50
2019-02-26T10:45:44.847Z,94.50
2019-02-26T10:48:16.853Z,94.70
2019-02-26T10:50:49.119Z,95.10
2019-02-26T10:53:20.353Z,95.30
2019-02-26T10:55:49.741Z,95.30
2019-02-26T10:58:19.676Z,94.80
2019-02-26T11:00:54.790Z,93.80
2019-02-26T11:03:24.004Z,93.40
2019-02-26T11:05:53.890Z,92.60
2019-02-26T11:08:26.749Z,91.50
2019-02-26T11:10:55.243Z,90.10
2019-02-26T11:13:25.885Z,89.40
2019-02-26T11:15:57.578Z,87.20
2019-02-26T11:18:27.298Z,86.60
2019-02-26T11:20:59.289Z,87.20
2019-02-26T11:23:31.167Z,86.10
2019-02-26T11:26:00.191Z,86.10
2019-02-26T11:28:33.238Z,88.10
2019-02-26T11:31:01.552Z,88.30
2019-02-26T11:33:31.455Z,88.50
2019-02-26T11:36:03.023Z,89.80
2019-02-26T11:38:34.777Z,90.30
2019-02-26T11:41:04.363Z,90.30
2019-02-26T11:43:34.296Z,90.90
2019-02-26T11:46:06.290Z,90.90
2019-02-26T11:48:35.834Z,90.30
2019-02-26T11:51:05.799Z,90.90
2019-02-26T11:53:35.694Z,90.90
2019-02-26T11:56:05.641Z,90.70
2019-02-26T11:58:37.786Z,90.70
2019-02-26T12:01:14.007Z,90.40
2019-02-26T12:03:44.063Z,89.60
2019-02-26T12:06:13.943Z,90.20
2019-02-26T12:08:44.876Z,90.70
2019-02-26T12:11:17.783Z,90.80
2019-02-26T12:13:47.330Z,90.90
2019-02-26T12:16:18.420Z,90.60
2019-02-26T12:18:48.263Z,90.40
2019-02-26T12:21:18.229Z,89.10
2019-02-26T12:23:48.134Z,87.10
2019-02-26T12:26:21.684Z,87.80
2019-02-26T12:28:52.275Z,88.30
2019-02-26T12:31:22.016Z,87.40
2019-02-26T12:33:51.882Z,87.40
2019-02-26T12:36:23.591Z,88.00
2019-02-26T12:38:54.282Z,86.60
2019-02-26T12:41:24.822Z,86.40
2019-02-26T12:43:54.667Z,86.60
2019-02-26T12:46:27.338Z,84.90
2019-02-26T12:48:56.035Z,84.50
2019-02-26T12:51:28.082Z,84.20
2019-02-26T12:53:57.411Z,83.60
2019-02-26T12:56:29.868Z,82.10
2019-02-26T12:58:58.838Z,79.20
2019-02-26T13:01:28.687Z,79.50
2019-02-26T13:03:58.539Z,80.70
2019-02-26T13:06:28.409Z,81.00
2019-02-26T13:08:58.250Z,81.90
2019-02-26T13:11:28.673Z,81.70
2019-02-26T13:13:58.523Z,82.50
2019-02-26T13:16:28.380Z,83.20
2019-02-26T13:19:00.891Z,84.20
2019-02-26T13:21:29.724Z,84.30
2019-02-26T13:24:11.452Z,83.90
2019-02-26T13:29:02.630Z,85.00
2019-02-26T13:34:03.993Z,85.30
2019-02-26T13:36:36.402Z,83.60
2019-02-26T13:39:07.849Z,81.90
2019-02-26T13:41:39.057Z,82.50
2019-02-26T13:44:09.663Z,82.60
2019-02-26T13:46:39.551Z,82.00
2019-02-26T13:49:08.756Z,81.00
2019-02-26T13:51:38.601Z,79.90
2019-02-26T13:54:08.491Z,79.90
2019-02-26T13:56:38.388Z,80.20
2019-02-26T13:59:08.213Z,81.10
2019-02-26T14:01:38.104Z,80.30
2019-02-26T14:04:07.937Z,81.10
2019-02-26T14:06:38.127Z,80.80
2019-02-26T14:09:08.562Z,80.80
2019-02-26T14:11:38.471Z,80.00
2019-02-26T14:14:08.426Z,80.40
2019-02-26T14:16:38.296Z,79.90
2019-02-26T14:19:08.187Z,79.70
2019-02-26T14:21:38.021Z,80.10
2019-02-26T14:24:07.876Z,80.60
2019-02-26T14:27:15.891Z,80.80
2019-02-26T14:29:45.722Z,79.90
2019-02-26T14:32:15.579Z,80.70
2019-02-26T14:34:45.666Z,80.60
2019-02-26T14:37:15.514Z,81.40
2019-02-26T14:39:45.403Z,81.20
2019-02-26T14:42:18.839Z,80.40
2019-02-26T14:44:49.907Z,80.70
2019-02-26T14:47:20.465Z,80.60
2019-02-26T14:49:50.797Z,81.20
2019-02-26T14:52:20.669Z,81.60
2019-02-26T14:54:50.590Z,82.40
2019-02-26T14:57:20.502Z,81.40
2019-02-26T14:59:50.422Z,82.40
2019-02-26T15:02:20.253Z,82.60
2019-02-26T15:04:50.101Z,83.50
2019-02-26T15:07:20.930Z,83.80
2019-02-26T15:09:50.818Z,83.80
2019-02-26T15:12:21.138Z,83.30
2019-02-26T15:14:51.707Z,83.80
2019-02-26T15:17:21.591Z,84.70
2019-02-26T15:19:56.328Z,84.40
2019-02-26T15:22:28.166Z,84.80
2019-02-26T15:24:58.225Z,85.30
2019-02-26T15:27:35.893Z,85.80
2019-02-26T15:29:59.914Z,86.10
2019-02-26T15:32:56.545Z,86.50
2019-02-26T15:35:27.294Z,86.60
2019-02-26T15:38:01.420Z,86.90
2019-02-26T15:40:31.478Z,87.80
2019-02-26T15:45:52.170Z,89.30
2019-02-26T15:48:22.183Z,89.60
2019-02-26T15:50:52.017Z,90.00
2019-02-26T15:53:23.847Z,90.20
2019-02-26T15:55:53.667Z,90.60
2019-02-26T15:58:24.015Z,90.70
2019-02-26T16:00:53.860Z,91.00
2019-02-26T16:03:23.858Z,91.20
2019-02-26T16:05:54.887Z,91.60
2019-02-26T16:08:34.209Z,91.70
2019-02-26T16:10:56.834Z,92.00
2019-02-26T16:13:27.168Z,92.20
2019-02-26T16:15:57.632Z,92.40
2019-02-26T16:18:30.134Z,92.80
2019-02-26T16:20:59.937Z,93.00
2019-02-26T16:23:29.791Z,93.20
2019-02-26T16:26:00.727Z,93.50
2019-02-26T16:28:31.851Z,93.80
2019-02-26T16:31:04.665Z,93.80
2019-02-26T16:33:37.651Z,94.00
2019-02-26T16:36:08.225Z,94.00
2019-02-26T16:38:38.101Z,94.20
2019-02-26T16:41:08.050Z,94.50
2019-02-26T16:43:40.074Z,94.60
2019-02-26T16:46:10.186Z,94.80
2019-02-26T16:48:40.248Z,95.10
2019-02-26T16:51:10.080Z,95.30
2019-02-26T16:53:39.932Z,95.70
2019-02-26T16:56:09.859Z,95.80
2019-02-26T16:58:39.753Z,95.80
2019-02-26T17:01:10.803Z,96.10
2019-02-26T17:03:40.655Z,96.30
2019-02-26T17:06:12.135Z,96.40
2019-02-26T17:08:42.011Z,96.60
2019-02-26T17:11:13.548Z,96.80
2019-02-26T17:13:44.151Z,96.70
2019-02-26T17:16:14.509Z,96.80
2019-02-26T17:18:44.414Z,97.00
2019-02-26T17:21:14.253Z,97.20
2019-02-26T17:23:47.094Z,97.30
2019-02-26T17:26:17.625Z,97.30
2019-02-26T17:28:47.574Z,97.50
2019-02-26T17:31:17.418Z,97.70
2019-02-26T17:33:47.860Z,97.90
2019-02-26T17:36:17.721Z,98.10
2019-02-26T17:38:51.532Z,98.30
2019-02-26T17:41:19.495Z,98.60
2019-02-26T17:43:49.385Z,98.90
2019-02-26T17:46:19.221Z,99.30
2019-02-26T17:48:49.083Z,99.80
2019-02-26T17:51:19.535Z,99.90
2019-02-26T17:53:49.711Z,99.90
2019-02-26T17:56:19.587Z,99.90
2019-02-26T17:58:49.791Z,99.90
2019-02-26T18:01:19.635Z,99.90
2019-02-26T18:03:49.474Z,99.90
2019-02-26T18:06:19.430Z,99.90
2019-02-26T18:08:49.269Z,99.90
2019-02-26T18:11:20.864Z,99.90
2019-02-26T18:13:50.809Z,99.90
2019-02-26T18:16:21.235Z,99.90
2019-02-26T18:18:51.123Z,99.90
2019-02-26T18:21:20.973Z,99.90
2019-02-26T18:23:50.839Z,99.90
2019-02-26T18:26:20.816Z,99.90
2019-02-26T18:28:50.755Z,99.90
2019-02-26T18:31:26.491Z,99.90
2019-02-26T18:33:52.189Z,99.90
2019-02-26T18:36:22.067Z,99.90
2019-02-26T18:38:51.942Z,99.90
2019-02-26T18:41:21.795Z,99.90
2019-02-26T18:43:51.757Z,99.90
2019-02-26T18:46:21.604Z,99.90
2019-02-26T18:48:51.450Z,99.90
2019-02-26T18:51:21.360Z,99.90
2019-02-26T18:53:51.335Z,99.90
2019-02-26T18:56:21.275Z,99.90
2019-02-26T18:58:51.856Z,99.90
2019-02-26T19:01:22.518Z,99.90
2019-02-26T19:03:52.584Z,99.90
2019-02-26T19:06:24.722Z,99.90
2019-02-26T19:08:54.111Z,99.90
2019-02-26T19:11:25.655Z,99.90
2019-02-26T19:13:56.235Z,99.90
2019-02-26T19:16:26.105Z,99.90
2019-02-26T19:18:56.566Z,99.90
2019-02-26T19:21:26.398Z,99.90
2019-02-26T19:23:56.258Z,99.90
2019-02-26T19:26:27.846Z,99.90
2019-02-26T19:28:59.075Z,99.90
2019-02-26T19:31:29.275Z,99.90
2019-02-26T19:33:59.517Z,99.90
2019-02-26T19:36:29.358Z,99.90
2019-02-26T19:39:00.956Z,99.90
2019-02-26T19:41:30.785Z,99.90
2019-02-26T19:44:00.743Z,99.90
2019-02-26T19:46:30.743Z,99.90
2019-02-26T19:49:00.617Z,99.90
2019-02-26T19:51:30.459Z,99.90
2019-02-26T19:54:00.420Z,99.90
2019-02-26T19:56:30.268Z,99.90
2019-02-26T19:59:00.150Z,99.90
2019-02-26T20:01:30.055Z,99.90
2019-02-26T20:03:59.899Z,99.90
2019-02-26T20:06:29.797Z,99.90
2019-02-26T20:08:59.697Z,99.90
2019-02-26T20:11:29.666Z,99.90
2019-02-26T20:14:04.712Z,99.90
2019-02-26T20:16:31.028Z,99.90
2019-02-26T20:19:00.905Z,99.90
2019-02-26T20:21:30.740Z,99.90
2019-02-26T20:24:00.607Z,99.90
2019-02-26T20:26:30.431Z,99.90
2019-02-26T20:29:00.822Z,99.90
2019-02-26T20:31:30.748Z,99.90
2019-02-26T20:34:00.608Z,99.90
2019-02-26T20:36:30.494Z,99.90
2019-02-26T20:39:00.354Z,99.90
2019-02-26T20:41:30.347Z,99.90
2019-02-26T20:44:00.190Z,99.90
2019-02-26T20:46:30.027Z,99.90
2019-02-26T20:48:59.892Z,99.90
2019-02-26T20:51:29.763Z,99.90
2019-02-26T20:53:59.624Z,99.90
2019-02-26T20:56:31.015Z,99.90
2019-02-26T20:59:01.042Z,99.90
2019-02-26T21:01:32.501Z,99.90
2019-02-26T21:04:02.448Z,99.90
2019-02-26T21:06:32.295Z,99.90
2019-02-26T21:09:06.857Z,99.90
2019-02-26T21:15:01.604Z,99.90
2019-02-26T21:17:31.458Z,99.90
2019-02-26T21:20:01.301Z,99.90
2019-02-26T21:22:31.197Z,99.90
2019-02-26T21:25:01.022Z,99.90
2019-02-26T21:27:30.868Z,99.90
2019-02-26T21:30:00.768Z,99.90
2019-02-26T21:32:30.615Z,99.90
2019-02-26T21:35:00.521Z,99.90
2019-02-26T21:37:32.600Z,99.90
2019-02-26T21:40:01.973Z,99.90
2019-02-26T21:42:31.837Z,99.90
2019-02-26T21:45:01.713Z,99.90
2019-02-26T21:47:31.618Z,99.90
2019-02-26T21:50:01.497Z,99.90
2019-02-26T21:52:31.340Z,99.90
2019-02-26T21:55:01.627Z,99.90
2019-02-26T21:57:31.771Z,99.90
2019-02-26T22:00:05.089Z,99.90
2019-02-26T22:02:33.326Z,99.90
2019-02-26T22:05:05.276Z,99.90
2019-02-26T22:07:34.681Z,99.90
2019-02-26T22:10:07.077Z,99.90
2019-02-26T22:12:36.345Z,99.90
2019-02-26T22:15:10.102Z,99.90
2019-02-26T22:17:38.578Z,99.90
2019-02-26T22:20:21.621Z,99.90
2019-02-26T22:22:42.031Z,99.90
2019-02-26T22:25:15.809Z,99.90
2019-02-26T22:27:43.851Z,99.90
2019-02-26T22:30:15.618Z,99.90
2019-02-26T22:32:45.677Z,99.90
2019-02-26T22:35:15.534Z,99.90
2019-02-26T22:37:46.459Z,99.90
2019-02-26T22:40:16.494Z,99.90
2019-02-26T22:42:46.346Z,99.90
2019-02-26T22:45:16.325Z,99.90
2019-02-26T22:47:46.199Z,99.90
2019-02-26T22:50:16.061Z,99.90
2019-02-26T22:52:46.012Z,99.90
2019-02-26T22:55:17.575Z,99.90
2019-02-26T22:57:47.848Z,99.90
2019-02-26T23:00:56.005Z,99.90
2019-02-26T23:03:25.971Z,99.90
2019-02-26T23:05:58.779Z,99.90
2019-02-26T23:08:27.954Z,99.90
2019-02-26T23:10:58.060Z,99.90
2019-02-26T23:13:31.461Z,99.90
2019-02-26T23:16:00.243Z,99.90
2019-02-26T23:18:30.975Z,99.90
2019-02-26T23:21:01.821Z,99.90
2019-02-26T23:23:31.900Z,99.90
2019-02-26T23:26:01.774Z,99.90
2019-02-26T23:28:31.722Z,99.90
2019-02-26T23:31:01.826Z,99.90
2019-02-26T23:33:31.648Z,99.90
2019-02-26T23:36:01.622Z,99.90
2019-02-26T23:38:31.592Z,99.90
2019-02-26T23:41:01.526Z,99.90
2019-02-26T23:43:32.294Z,99.90
2019-02-26T23:46:02.244Z,99.90
2019-02-26T23:48:32.100Z,99.90
2019-02-26T23:51:01.955Z,99.90
2019-02-26T23:53:33.862Z,99.90
2019-02-26T23:56:03.315Z,99.90
2019-02-26T23:58:34.930Z,99.90
